createdAt,value
2017-11-19T00:01:55.056Z,100430.98
2017-11-19T00:04:20.835Z,100427.13
2017-11-19T00:06:46.629Z,100429.09
2017-11-19T00:09:12.467Z,100434.73
2017-11-19T00:11:38.511Z,100430.61
2017-11-19T00:14:04.318Z,100430.84
2017-11-19T00:16:30.105Z,100417.27
2017-11-19T00:18:55.893Z,100431.17
2017-11-19T00:21:21.687Z,100419.91
2017-11-19T00:23:47.504Z,100424.48
2017-11-19T00:26:13.288Z,100412.53
2017-11-19T00:28:39.081Z,100410.23
2017-11-19T00:31:04.870Z,100407.51
2017-11-19T00:33:30.887Z,100410.64
2017-11-19T00:35:56.679Z,100405.70
2017-11-19T00:38:22.479Z,100404.30
2017-11-19T00:40:48.269Z,100397.53
2017-11-19T00:43:14.060Z,100398.73
2017-11-19T00:45:39.851Z,100398.31
2017-11-19T00:48:05.634Z,100399.49
2017-11-19T00:50:31.573Z,100393.44
2017-11-19T00:52:57.366Z,100390.91
2017-11-19T00:55:23.170Z,100398.73
2017-11-19T00:57:48.986Z,100393.86
2017-11-19T01:00:14.858Z,100389.81
2017-11-19T01:02:40.645Z,100385.09
2017-11-19T01:05:12.727Z,100386.26
2017-11-19T01:07:38.538Z,100375.26
2017-11-19T01:10:04.364Z,100385.42
2017-11-19T01:12:30.189Z,100379.84
2017-11-19T01:14:55.992Z,100377.15
2017-11-19T01:17:21.845Z,100369.17
2017-11-19T01:19:47.674Z,100368.16
2017-11-19T01:22:13.452Z,100365.09
2017-11-19T01:24:39.333Z,100363.77
2017-11-19T01:27:05.119Z,100366.41
2017-11-19T01:29:30.907Z,100357.77
2017-11-19T01:31:56.693Z,100347.73
2017-11-19T01:34:22.521Z,100346.64
2017-11-19T01:36:48.321Z,100343.34
2017-11-19T01:39:14.112Z,100343.00
2017-11-19T01:41:39.908Z,100328.12
2017-11-19T01:44:05.891Z,100321.61
2017-11-19T01:46:31.680Z,100313.63
2017-11-19T01:48:57.469Z,100308.12
2017-11-19T01:51:23.261Z,100311.41
2017-11-19T01:53:49.046Z,100306.23
2017-11-19T01:56:15.953Z,100294.63
2017-11-19T01:58:41.734Z,100301.16
2017-11-19T02:01:07.562Z,100299.95
2017-11-19T02:03:33.349Z,100295.50
2017-11-19T02:05:59.140Z,100298.72
2017-11-19T02:08:24.923Z,100294.32
2017-11-19T02:10:50.725Z,100295.80
2017-11-19T02:13:16.515Z,100293.65
2017-11-19T02:15:42.374Z,100295.98
2017-11-19T02:18:08.254Z,100284.31
2017-11-19T02:20:34.025Z,100280.18
2017-11-19T02:22:59.819Z,100276.51
2017-11-19T02:25:25.640Z,100280.87
2017-11-19T02:27:51.489Z,100284.65
2017-11-19T02:30:17.273Z,100284.58
2017-11-19T02:32:43.056Z,100286.12
2017-11-19T02:35:08.839Z,100285.83
2017-11-19T02:37:34.619Z,100285.35
2017-11-19T02:40:00.401Z,100276.64
2017-11-19T02:42:26.180Z,100280.95
2017-11-19T02:44:52.738Z,100283.06
2017-11-19T02:47:18.525Z,100285.41
2017-11-19T02:49:44.321Z,100283.25
2017-11-19T02:52:10.136Z,100276.77
2017-11-19T02:54:35.916Z,100276.70
2017-11-19T02:57:01.695Z,100276.30
2017-11-19T02:59:28.265Z,100269.91
2017-11-19T03:01:54.165Z,100268.59
2017-11-19T03:04:19.949Z,100273.45
2017-11-19T03:06:45.732Z,100261.73
2017-11-19T03:09:11.506Z,100274.28
2017-11-19T03:11:37.281Z,100266.47
2017-11-19T03:14:03.066Z,100258.27
2017-11-19T03:16:28.881Z,100261.25
2017-11-19T03:18:54.654Z,100258.59
2017-11-19T03:21:21.331Z,100256.44
2017-11-19T03:23:47.109Z,100252.20
2017-11-19T03:26:12.896Z,100249.58
2017-11-19T03:28:38.689Z,100251.31
2017-11-19T03:31:04.477Z,100247.05
2017-11-19T03:33:30.313Z,100248.86
2017-11-19T03:35:56.080Z,100249.60
2017-11-19T03:38:21.852Z,100245.02
2017-11-19T03:40:47.664Z,100241.88
2017-11-19T03:43:13.484Z,100235.19
2017-11-19T03:45:39.294Z,100242.86
2017-11-19T03:48:05.167Z,100237.48
2017-11-19T03:50:30.938Z,100238.25
2017-11-19T03:52:56.741Z,100242.61
2017-11-19T03:55:22.558Z,100239.33
2017-11-19T03:57:48.380Z,100240.31
2017-11-19T04:00:14.156Z,100231.35
2017-11-19T04:02:39.977Z,100228.78
2017-11-19T04:05:05.753Z,100224.48
2017-11-19T04:07:31.532Z,100224.48
2017-11-19T04:09:58.210Z,100219.33
2017-11-19T04:12:23.989Z,100217.33
2017-11-19T04:14:49.815Z,100210.12
2017-11-19T04:17:15.597Z,100207.33
2017-11-19T04:19:41.372Z,100212.63
2017-11-19T04:22:07.158Z,100204.76
2017-11-19T04:24:32.953Z,100212.52
2017-11-19T04:26:58.746Z,100203.53
2017-11-19T04:29:24.549Z,100202.42
2017-11-19T04:31:50.342Z,100203.99
2017-11-19T04:34:16.125Z,100209.99
2017-11-19T04:36:41.913Z,100202.17
2017-11-19T04:39:07.734Z,100192.02
2017-11-19T04:41:33.512Z,100182.00
2017-11-19T04:43:59.325Z,100189.47
2017-11-19T04:46:25.101Z,100187.62
2017-11-19T04:48:50.873Z,100181.00
2017-11-19T04:51:16.664Z,100174.47
2017-11-19T04:53:42.445Z,100180.84
2017-11-19T04:56:08.280Z,100177.82
2017-11-19T04:58:34.068Z,100176.44
2017-11-19T05:00:59.852Z,100171.70
2017-11-19T05:03:25.815Z,100172.65
2017-11-19T05:05:51.592Z,100169.41
2017-11-19T05:08:18.302Z,100161.19
2017-11-19T05:10:44.094Z,100154.22
2017-11-19T05:13:09.883Z,100155.64
2017-11-19T05:15:35.692Z,100150.59
2017-11-19T05:18:01.483Z,100156.87
2017-11-19T05:20:27.269Z,100155.92
2017-11-19T05:22:54.018Z,100150.69
2017-11-19T05:25:19.802Z,100150.77
2017-11-19T05:27:45.633Z,100144.70
2017-11-19T05:30:11.633Z,100146.58
2017-11-19T05:32:38.391Z,100142.86
2017-11-19T05:35:04.177Z,100136.31
2017-11-19T05:37:29.961Z,100136.13
2017-11-19T05:39:55.743Z,100124.77
2017-11-19T05:42:21.522Z,100129.73
2017-11-19T05:44:47.301Z,100125.06
2017-11-19T05:47:13.238Z,100119.02
2017-11-19T05:49:39.061Z,100123.66
2017-11-19T05:52:04.849Z,100120.88
2017-11-19T05:54:30.669Z,100122.33
2017-11-19T05:56:56.584Z,100124.34
2017-11-19T05:59:22.365Z,100123.77
2017-11-19T06:01:49.208Z,100124.42
2017-11-19T06:04:14.997Z,100128.52
2017-11-19T06:06:40.777Z,100131.47
2017-11-19T06:09:06.569Z,100127.10
2017-11-19T06:11:32.353Z,100133.02
2017-11-19T06:13:58.128Z,100128.08
2017-11-19T06:16:24.066Z,100129.73
2017-11-19T06:18:49.848Z,100128.78
2017-11-19T06:21:15.641Z,100124.19
2017-11-19T06:23:41.416Z,100125.70
2017-11-19T06:26:07.207Z,100139.27
2017-11-19T06:28:33.017Z,100130.63
2017-11-19T06:30:58.877Z,100130.30
2017-11-19T06:33:24.724Z,100124.52
2017-11-19T06:35:57.464Z,100127.85
2017-11-19T06:38:23.274Z,100123.51
2017-11-19T06:40:49.218Z,100130.16
2017-11-19T06:43:15.071Z,100126.84
2017-11-19T06:45:40.856Z,100136.34
2017-11-19T06:48:06.634Z,100139.13
2017-11-19T06:50:32.427Z,100136.05
2017-11-19T06:52:58.238Z,100126.06
2017-11-19T06:55:24.053Z,100128.91
2017-11-19T06:57:49.867Z,100121.31
2017-11-19T07:00:15.651Z,100121.16
2017-11-19T07:02:41.430Z,100115.84
2017-11-19T07:05:07.247Z,100115.92
2017-11-19T07:07:33.190Z,100116.53
2017-11-19T07:09:58.990Z,100129.20
2017-11-19T07:12:24.792Z,100134.16
2017-11-19T07:14:50.577Z,100129.75
2017-11-19T07:17:18.554Z,100125.70
2017-11-19T07:19:44.341Z,100126.14
2017-11-19T07:22:10.149Z,100121.23
2017-11-19T07:24:36.630Z,100115.31
2017-11-19T07:27:03.818Z,100104.50
2017-11-19T07:29:31.324Z,100104.31
2017-11-19T07:31:57.181Z,100108.98
2017-11-19T07:34:22.981Z,100115.53
2017-11-19T07:36:48.920Z,100112.75
2017-11-19T07:39:14.736Z,100103.02
2017-11-19T07:41:40.533Z,100107.64
2017-11-19T07:44:06.374Z,100107.72
2017-11-19T07:46:32.198Z,100103.64
2017-11-19T07:48:57.980Z,100105.92
2017-11-19T07:51:23.813Z,100107.05
2017-11-19T07:53:49.593Z,100098.71
2017-11-19T07:56:16.301Z,100096.33
2017-11-19T07:58:42.089Z,100096.58
2017-11-19T08:01:08.088Z,100096.81
2017-11-19T08:03:33.873Z,100093.39
2017-11-19T08:05:59.807Z,100088.64
2017-11-19T08:08:25.582Z,100094.61
2017-11-19T08:10:51.375Z,100088.13
2017-11-19T08:13:17.159Z,100083.17
2017-11-19T08:15:42.954Z,100078.98
2017-11-19T08:18:08.792Z,100074.16
2017-11-19T08:20:34.561Z,100083.39
2017-11-19T08:23:00.506Z,100076.39
2017-11-19T08:25:27.250Z,100085.02
2017-11-19T08:27:53.040Z,100080.52
2017-11-19T08:30:18.828Z,100094.39
2017-11-19T08:32:44.651Z,100089.97
2017-11-19T08:35:10.761Z,100094.69
2017-11-19T08:37:36.579Z,100092.38
2017-11-19T08:40:02.611Z,100089.73
2017-11-19T08:42:28.609Z,100090.55
2017-11-19T08:44:55.350Z,100093.30
2017-11-19T08:47:21.126Z,100074.78
2017-11-19T08:49:46.981Z,100071.03
2017-11-19T08:52:12.777Z,100080.44
2017-11-19T08:54:38.724Z,100074.66
2017-11-19T08:57:04.505Z,100072.84
2017-11-19T08:59:30.288Z,100075.66
2017-11-19T09:01:56.100Z,100066.61
2017-11-19T09:04:21.886Z,100084.82
2017-11-19T09:06:47.832Z,100080.26
2017-11-19T09:09:13.637Z,100068.14
2017-11-19T09:11:39.434Z,100078.21
2017-11-19T09:14:05.281Z,100086.86
2017-11-19T09:16:31.057Z,100074.73
2017-11-19T09:18:56.851Z,100077.08
2017-11-19T09:21:23.689Z,100076.87
2017-11-19T09:23:49.491Z,100075.55
2017-11-19T09:26:15.266Z,100084.28
2017-11-19T09:28:41.234Z,100077.78
2017-11-19T09:31:07.125Z,100080.28
2017-11-19T09:33:32.942Z,100078.29
2017-11-19T09:35:59.007Z,100080.94
2017-11-19T09:38:25.496Z,100078.73
2017-11-19T09:40:51.352Z,100076.58
2017-11-19T09:43:17.145Z,100068.94
2017-11-19T09:45:43.104Z,100073.85
2017-11-19T09:48:09.385Z,100076.83
2017-11-19T09:50:35.170Z,100076.38
2017-11-19T09:53:00.974Z,100070.79
2017-11-19T09:55:26.761Z,100061.03
2017-11-19T09:57:52.645Z,100065.70
2017-11-19T10:00:19.541Z,100049.80
2017-11-19T10:02:45.322Z,100046.16
2017-11-19T10:05:11.290Z,100053.73
2017-11-19T10:07:37.211Z,100054.77
2017-11-19T10:10:03.147Z,100047.75
2017-11-19T10:12:29.092Z,100045.60
2017-11-19T10:14:54.938Z,100037.45
2017-11-19T10:17:20.716Z,100034.71
2017-11-19T10:19:46.641Z,100052.42
2017-11-19T10:22:12.430Z,100040.64
2017-11-19T10:24:38.244Z,100040.73
2017-11-19T10:27:04.028Z,100043.42
2017-11-19T10:29:29.808Z,100046.87
2017-11-19T10:31:56.021Z,100042.49
2017-11-19T10:34:21.973Z,100047.92
2017-11-19T10:36:47.813Z,100048.00
2017-11-19T10:39:13.669Z,100053.50
2017-11-19T10:41:39.461Z,100046.05
2017-11-19T10:44:05.898Z,100035.41
2017-11-19T10:46:31.704Z,100044.19
2017-11-19T10:51:43.798Z,100042.23
2017-11-19T10:54:09.595Z,100040.09
2017-11-19T10:56:35.393Z,100040.35
2017-11-19T10:59:01.200Z,100025.91
2017-11-19T11:01:27.068Z,100030.50
2017-11-19T11:03:53.001Z,100033.69
2017-11-19T11:06:18.805Z,100033.19
2017-11-19T11:08:44.721Z,100025.83
2017-11-19T11:11:10.517Z,100039.30
2017-11-19T11:13:36.510Z,100039.92
2017-11-19T11:16:02.384Z,100031.91
2017-11-19T11:18:28.315Z,100026.11
2017-11-19T11:20:54.110Z,100035.63
2017-11-19T11:23:19.907Z,100033.24
2017-11-19T11:25:45.701Z,100035.94
2017-11-19T11:28:11.489Z,100023.43
2017-11-19T11:30:37.303Z,100029.08
2017-11-19T11:33:03.236Z,100033.39
2017-11-19T11:35:29.017Z,100035.92
2017-11-19T11:37:54.813Z,100032.91
2017-11-19T11:40:20.605Z,100036.16
2017-11-19T11:42:46.505Z,100039.97
2017-11-19T11:45:12.289Z,100039.69
2017-11-19T11:47:38.162Z,100032.83
2017-11-19T11:50:03.953Z,100019.92
2017-11-19T11:52:29.889Z,100024.31
2017-11-19T11:54:55.725Z,100021.33
2017-11-19T11:57:21.639Z,100023.45
2017-11-19T11:59:47.556Z,100024.72
2017-11-19T12:02:13.344Z,100026.59
2017-11-19T12:04:39.192Z,100013.77
2017-11-19T12:07:05.117Z,100011.69
2017-11-19T12:09:30.928Z,100010.66
2017-11-19T12:11:57.589Z,100002.63
2017-11-19T12:14:23.420Z,100009.16
2017-11-19T12:16:49.197Z,100003.53
2017-11-19T12:19:14.991Z,100009.00
2017-11-19T12:21:40.771Z,100002.67
2017-11-19T12:24:06.555Z,100005.41
2017-11-19T12:26:32.366Z,99999.81
2017-11-19T12:28:58.171Z,100007.14
2017-11-19T12:31:24.028Z,100008.34
2017-11-19T12:33:49.812Z,100006.14
2017-11-19T12:36:15.605Z,100001.22
2017-11-19T12:38:41.525Z,100004.20
2017-11-19T12:41:09.562Z,100005.90
2017-11-19T12:43:35.340Z,100005.08
2017-11-19T12:46:01.133Z,100006.10
2017-11-19T12:48:26.916Z,100000.06
2017-11-19T12:50:52.734Z,99989.84
2017-11-19T12:53:18.664Z,99998.91
2017-11-19T12:55:44.444Z,100001.89
2017-11-19T12:58:10.266Z,99999.61
2017-11-19T13:00:36.058Z,100002.87
2017-11-19T13:03:01.877Z,100005.73
2017-11-19T13:05:27.670Z,99999.11
2017-11-19T13:07:53.486Z,100006.20
2017-11-19T13:10:19.516Z,100006.02
2017-11-19T13:12:45.302Z,100005.69
2017-11-19T13:15:11.293Z,100005.08
2017-11-19T13:17:37.064Z,100007.52
2017-11-19T13:20:02.904Z,100009.75
2017-11-19T13:22:28.761Z,100016.33
2017-11-19T13:24:54.728Z,100006.77
2017-11-19T13:27:20.513Z,100015.29
2017-11-19T13:29:46.293Z,100013.79
2017-11-19T13:32:12.120Z,100021.58
2017-11-19T13:34:38.965Z,100019.47
2017-11-19T13:37:05.762Z,100017.28
2017-11-19T13:39:32.381Z,100008.84
2017-11-19T13:41:59.197Z,100013.09
2017-11-19T13:44:26.052Z,100008.51
2017-11-19T13:46:51.841Z,100003.09
2017-11-19T13:49:17.733Z,100012.06
2017-11-19T13:51:43.572Z,100013.18
2017-11-19T13:54:09.373Z,100016.53
2017-11-19T13:56:35.161Z,100017.36
2017-11-19T13:59:00.932Z,100017.78
2017-11-19T14:01:26.756Z,100023.85
2017-11-19T14:06:25.192Z,100021.62
2017-11-19T14:08:57.848Z,100023.65
2017-11-19T14:14:20.516Z,100030.91
2017-11-19T14:16:46.301Z,100023.60
2017-11-19T14:19:12.997Z,100032.22
2017-11-19T14:21:39.002Z,100026.75
2017-11-19T14:24:04.794Z,100031.35
2017-11-19T14:26:30.574Z,100031.82
2017-11-19T14:28:56.358Z,100027.92
2017-11-19T14:31:22.152Z,100021.81
2017-11-19T14:33:48.929Z,100024.78
2017-11-19T14:36:14.718Z,100027.31
2017-11-19T14:38:40.552Z,100026.58
2017-11-19T14:41:06.343Z,100015.61
2017-11-19T14:43:32.145Z,100026.70
2017-11-19T14:45:57.946Z,100015.53
2017-11-19T14:48:23.745Z,100015.89
2017-11-19T14:50:49.572Z,100024.84
2017-11-19T14:53:15.390Z,100022.11
2017-11-19T14:55:42.197Z,100018.23
2017-11-19T14:58:08.947Z,100013.34
2017-11-19T15:00:34.743Z,100011.12
2017-11-19T15:03:00.724Z,100014.88
2017-11-19T15:05:26.525Z,100016.20
2017-11-19T15:07:52.330Z,100015.36
2017-11-19T15:10:19.722Z,100024.16
2017-11-19T15:12:45.521Z,100024.09
2017-11-19T15:15:11.415Z,100023.64
2017-11-19T15:17:37.243Z,100027.36
2017-11-19T15:20:03.033Z,100036.72
2017-11-19T15:22:29.637Z,100034.63
2017-11-19T15:24:56.490Z,100035.66
2017-11-19T15:27:22.334Z,100031.98
2017-11-19T15:29:48.131Z,100045.84
2017-11-19T15:32:13.922Z,100049.80
2017-11-19T15:34:39.715Z,100046.41
2017-11-19T15:37:05.514Z,100054.31
2017-11-19T15:39:31.342Z,100059.61
2017-11-19T15:41:57.189Z,100073.31
2017-11-19T15:44:23.113Z,100085.92
2017-11-19T15:46:48.907Z,100080.20
2017-11-19T15:49:14.828Z,100082.16
2017-11-19T15:51:40.628Z,100070.53
2017-11-19T15:54:06.572Z,100076.36
2017-11-19T15:56:32.374Z,100072.95
2017-11-19T15:58:58.184Z,100071.64
2017-11-19T16:01:24.033Z,100076.11
2017-11-19T16:03:49.827Z,100077.18
2017-11-19T16:06:15.751Z,100069.37
2017-11-19T16:08:42.623Z,100077.56
2017-11-19T16:11:09.394Z,100060.59
2017-11-19T16:13:35.179Z,100065.66
2017-11-19T16:16:00.974Z,100062.14
2017-11-19T16:18:26.787Z,100058.39
2017-11-19T16:20:52.588Z,100056.59
2017-11-19T16:23:18.386Z,100065.56
2017-11-19T16:25:44.373Z,100067.55
2017-11-19T16:28:10.167Z,100061.66
2017-11-19T16:30:36.805Z,100059.88
2017-11-19T16:33:02.626Z,100067.47
2017-11-19T16:35:28.428Z,100063.59
2017-11-19T16:37:54.290Z,100061.05
2017-11-19T16:40:20.131Z,100055.00
2017-11-19T16:42:45.990Z,100053.55
2017-11-19T16:45:11.854Z,100050.80
2017-11-19T16:47:37.641Z,100051.61
2017-11-19T16:50:03.436Z,100057.73
2017-11-19T16:52:29.223Z,100063.28
2017-11-19T16:54:55.036Z,100073.38
2017-11-19T16:57:20.894Z,100066.94
2017-11-19T16:59:46.769Z,100066.67
2017-11-19T17:02:12.734Z,100091.41
2017-11-19T17:04:39.659Z,100099.92
2017-11-19T17:07:05.488Z,100097.61
2017-11-19T17:09:34.658Z,100103.34
2017-11-19T17:12:00.507Z,100109.03
2017-11-19T17:14:26.293Z,100104.66
2017-11-19T17:16:52.083Z,100136.71
2017-11-19T17:19:18.921Z,100162.43
2017-11-19T17:21:44.724Z,100150.52
2017-11-19T17:24:10.606Z,100146.19
2017-11-19T17:26:36.399Z,100103.71
2017-11-19T17:29:02.229Z,100121.56
2017-11-19T17:31:28.068Z,100134.19
2017-11-19T17:33:53.868Z,100121.38
2017-11-19T17:36:25.630Z,100127.88
2017-11-19T17:38:51.417Z,100135.13
2017-11-19T17:41:17.270Z,100121.70
2017-11-19T17:43:43.050Z,100128.34
2017-11-19T17:46:08.878Z,100126.73
2017-11-19T17:48:34.668Z,100129.78
2017-11-19T17:51:00.494Z,100131.47
2017-11-19T17:53:26.485Z,100145.51
2017-11-19T17:55:52.405Z,100144.75
2017-11-19T17:58:18.209Z,100147.30
2017-11-19T18:00:44.006Z,100153.51
2017-11-19T18:03:09.842Z,100159.21
2017-11-19T18:05:35.678Z,100158.83
2017-11-19T18:08:01.493Z,100159.81
2017-11-19T18:10:27.303Z,100162.90
2017-11-19T18:12:55.966Z,100160.62
2017-11-19T18:15:21.762Z,100161.66
2017-11-19T18:17:47.561Z,100157.73
2017-11-19T18:20:13.467Z,100157.06
2017-11-19T18:22:39.310Z,100157.03
2017-11-19T18:25:05.218Z,100165.18
2017-11-19T18:27:31.308Z,100166.47
2017-11-19T18:29:57.199Z,100166.39
2017-11-19T18:32:23.006Z,100172.00
2017-11-19T18:34:48.808Z,100173.56
2017-11-19T18:37:14.753Z,100171.52
2017-11-19T18:39:40.657Z,100169.64
2017-11-19T18:42:06.452Z,100173.69
2017-11-19T18:44:32.267Z,100180.55
2017-11-19T18:46:58.197Z,100182.87
2017-11-19T18:49:24.041Z,100180.57
2017-11-19T18:51:49.838Z,100180.03
2017-11-19T18:54:15.659Z,100188.21
2017-11-19T18:56:41.445Z,100191.82
2017-11-19T18:59:07.277Z,100193.06
2017-11-19T19:01:33.117Z,100196.73
2017-11-19T19:03:58.913Z,100199.61
2017-11-19T19:06:24.704Z,100201.42
2017-11-19T19:08:51.445Z,100208.59
2017-11-19T19:11:17.277Z,100212.77
2017-11-19T19:13:43.067Z,100209.69
2017-11-19T19:16:08.928Z,100217.02
2017-11-19T19:18:34.741Z,100215.08
2017-11-19T19:21:00.770Z,100216.02
2017-11-19T19:23:26.683Z,100222.92
2017-11-19T19:25:52.770Z,100229.39
2017-11-19T19:28:19.326Z,100238.79
2017-11-19T19:30:48.011Z,100248.99
2017-11-19T19:33:15.112Z,100251.70
2017-11-19T19:35:41.042Z,100254.80
2017-11-19T19:38:06.980Z,100264.42
2017-11-19T19:40:32.896Z,100274.06
2017-11-19T19:43:00.476Z,100273.27
2017-11-19T19:45:27.925Z,100277.80
2017-11-19T19:47:55.874Z,100288.41
2017-11-19T19:50:24.139Z,100292.23
2017-11-19T19:52:53.552Z,100301.03
2017-11-19T19:55:22.903Z,100307.30
2017-11-19T19:57:53.327Z,100312.77
2017-11-19T20:00:25.432Z,100319.56
2017-11-19T20:02:57.974Z,100319.98
2017-11-19T20:05:28.763Z,100323.75
2017-11-19T20:07:56.449Z,100327.38
2017-11-19T20:10:25.845Z,100333.77
2017-11-19T20:13:09.005Z,100338.72
2017-11-19T20:15:35.525Z,100344.84
2017-11-19T20:18:03.454Z,100345.55
2017-11-19T20:20:30.345Z,100350.41
2017-11-19T20:23:02.162Z,100354.39
2017-11-19T20:25:30.780Z,100354.26
2017-11-19T20:27:57.656Z,100359.81
2017-11-19T20:30:24.389Z,100355.23
2017-11-19T20:33:01.309Z,100364.70
2017-11-19T20:35:28.585Z,100369.50
2017-11-19T20:38:02.530Z,100367.42
2017-11-19T20:40:31.237Z,100370.00
2017-11-19T20:42:57.937Z,100379.48
2017-11-19T20:45:25.405Z,100376.20
2017-11-19T20:47:56.358Z,100380.66
2017-11-19T20:50:24.587Z,100394.80
2017-11-19T20:52:55.213Z,100392.30
2017-11-19T20:55:29.341Z,100396.30
2017-11-19T21:00:56.718Z,100400.79
2017-11-19T21:03:26.306Z,100407.77
2017-11-19T21:05:52.138Z,100412.23
2017-11-19T21:08:24.991Z,100422.27
2017-11-19T21:10:55.905Z,100418.23
2017-11-19T21:13:27.013Z,100428.13
2017-11-19T21:15:59.434Z,100427.75
2017-11-19T21:18:33.074Z,100433.28
2017-11-19T21:21:09.386Z,100436.06
2017-11-19T21:23:41.206Z,100447.34
2017-11-19T21:26:08.651Z,100442.81
2017-11-19T21:28:36.823Z,100450.19
2017-11-19T21:31:06.288Z,100456.20
2017-11-19T21:33:37.502Z,100457.45
2017-11-19T21:36:07.968Z,100461.42
2017-11-19T21:38:35.576Z,100469.52
2017-11-19T21:41:05.847Z,100463.58
2017-11-19T21:43:34.590Z,100461.16
2017-11-19T21:46:03.019Z,100469.29
2017-11-19T21:48:32.237Z,100483.25
2017-11-19T21:50:59.324Z,100486.09
2017-11-19T21:53:26.804Z,100488.95
2017-11-19T21:55:55.353Z,100490.97
2017-11-19T21:58:24.428Z,100492.30
2017-11-19T22:00:53.013Z,100497.94
2017-11-19T22:03:21.429Z,100495.70
2017-11-19T22:05:48.385Z,100504.90
2017-11-19T22:08:14.173Z,100505.20
2017-11-19T22:10:39.998Z,100502.89
2017-11-19T22:13:05.836Z,100500.66
2017-11-19T22:15:32.482Z,100514.66
2017-11-19T22:17:58.265Z,100517.94
2017-11-19T22:20:25.045Z,100521.50
2017-11-19T22:22:51.789Z,100525.97
2017-11-19T22:25:18.599Z,100532.59
2017-11-19T22:27:44.393Z,100534.67
2017-11-19T22:30:10.228Z,100537.05
2017-11-19T22:32:36.044Z,100537.17
2017-11-19T22:35:02.742Z,100540.54
2017-11-19T22:37:28.573Z,100549.80
2017-11-19T22:39:55.336Z,100551.19
2017-11-19T22:42:22.057Z,100553.77
2017-11-19T22:44:47.880Z,100553.70
2017-11-19T22:47:13.657Z,100550.30
2017-11-19T22:49:39.489Z,100556.77
2017-11-19T22:52:06.263Z,100559.98
2017-11-19T22:54:32.093Z,100553.36
2017-11-19T22:56:58.945Z,100557.41
2017-11-19T22:59:24.738Z,100565.12
2017-11-19T23:01:50.769Z,100568.69
2017-11-19T23:04:17.396Z,100572.88
2017-11-19T23:06:44.226Z,100578.36
2017-11-19T23:09:10.992Z,100581.09
2017-11-19T23:11:36.781Z,100587.38
2017-11-19T23:14:02.957Z,100587.03
2017-11-19T23:16:28.760Z,100585.97
2017-11-19T23:18:55.541Z,100598.14
2017-11-19T23:21:22.345Z,100599.31
2017-11-19T23:23:49.072Z,100605.20
2017-11-19T23:26:15.787Z,100605.16
2017-11-19T23:28:41.611Z,100613.77
2017-11-19T23:31:07.399Z,100613.22
2017-11-19T23:33:33.215Z,100617.69
2017-11-19T23:36:00.022Z,100613.13
2017-11-19T23:38:25.805Z,100616.56
2017-11-19T23:40:51.613Z,100629.81
2017-11-19T23:43:17.449Z,100631.58
2017-11-19T23:45:43.234Z,100625.61
2017-11-19T23:48:09.977Z,100641.21
2017-11-19T23:50:35.760Z,100643.00
2017-11-19T23:53:01.552Z,100648.00
2017-11-19T23:55:27.353Z,100649.09
2017-11-19T23:57:53.138Z,100648.42
